createdAt,value
2018-07-05T00:00:25.640Z,0.00
2018-07-05T00:01:25.605Z,0.00
2018-07-05T00:02:25.567Z,0.00
2018-07-05T00:03:25.531Z,0.00
2018-07-05T00:04:25.485Z,0.00
2018-07-05T00:05:25.446Z,0.00
2018-07-05T00:06:25.403Z,0.00
2018-07-05T00:07:25.366Z,0.00
2018-07-05T00:08:25.324Z,0.00
2018-07-05T00:09:25.287Z,0.00
2018-07-05T00:10:25.252Z,0.00
2018-07-05T00:11:25.213Z,0.00
2018-07-05T00:12:25.165Z,0.00
2018-07-05T00:13:25.130Z,0.00
2018-07-05T00:14:25.094Z,0.00
2018-07-05T00:15:25.049Z,0.00
2018-07-05T00:16:25.011Z,0.00
2018-07-05T00:17:24.973Z,0.00
2018-07-05T00:18:24.931Z,0.00
2018-07-05T00:19:24.893Z,0.00
2018-07-05T00:20:24.852Z,0.00
2018-07-05T00:21:24.813Z,0.00
2018-07-05T00:22:24.775Z,0.00
2018-07-05T00:23:24.736Z,0.00
2018-07-05T00:24:24.690Z,0.00
2018-07-05T00:25:24.656Z,0.00
2018-07-05T00:26:24.615Z,0.00
2018-07-05T00:27:24.576Z,0.00
2018-07-05T00:28:24.534Z,0.00
2018-07-05T00:29:24.497Z,0.00
2018-07-05T00:30:24.459Z,0.00
2018-07-05T00:31:24.418Z,0.00
2018-07-05T00:32:24.395Z,0.00
2018-07-05T00:33:24.341Z,0.00
2018-07-05T00:34:24.298Z,0.00
2018-07-05T00:35:24.260Z,0.00
2018-07-05T00:36:24.222Z,0.00
2018-07-05T00:37:24.187Z,0.00
2018-07-05T00:38:24.142Z,0.00
2018-07-05T00:39:24.103Z,0.00
2018-07-05T00:40:24.065Z,0.00
2018-07-05T00:41:24.020Z,0.00
2018-07-05T00:42:23.984Z,0.00
2018-07-05T00:43:23.949Z,0.00
2018-07-05T00:44:23.904Z,0.00
2018-07-05T00:45:23.866Z,0.00
2018-07-05T00:46:23.817Z,0.00
2018-07-05T00:47:23.792Z,0.00
2018-07-05T00:48:23.744Z,0.00
2018-07-05T00:49:23.705Z,0.00
2018-07-05T00:50:23.669Z,0.00
2018-07-05T00:51:23.633Z,0.00
2018-07-05T00:52:23.582Z,0.00
2018-07-05T00:53:23.550Z,0.00
2018-07-05T00:54:23.512Z,0.00
2018-07-05T00:55:23.470Z,0.00
2018-07-05T00:56:23.432Z,0.00
2018-07-05T00:57:23.390Z,0.00
2018-07-05T00:58:23.358Z,0.00
2018-07-05T00:59:23.310Z,0.00
2018-07-05T01:00:23.279Z,0.00
2018-07-05T01:01:23.240Z,0.00
2018-07-05T01:02:23.199Z,0.00
2018-07-05T01:03:23.161Z,0.00
2018-07-05T01:04:23.115Z,0.00
2018-07-05T01:05:23.078Z,0.00
2018-07-05T01:06:23.036Z,0.00
2018-07-05T01:07:22.998Z,0.00
2018-07-05T01:08:22.956Z,0.00
2018-07-05T01:09:22.918Z,0.00
2018-07-05T01:10:22.880Z,0.00
2018-07-05T01:11:22.842Z,0.00
2018-07-05T01:12:22.800Z,0.00
2018-07-05T01:13:22.759Z,0.00
2018-07-05T01:14:22.720Z,0.00
2018-07-05T01:15:22.681Z,0.00
2018-07-05T01:16:22.642Z,0.00
2018-07-05T01:17:22.600Z,0.00
2018-07-05T01:18:22.559Z,0.00
2018-07-05T01:19:22.524Z,0.00
2018-07-05T01:20:22.498Z,0.00
2018-07-05T01:21:22.445Z,0.00
2018-07-05T01:22:22.406Z,0.00
2018-07-05T01:23:22.374Z,0.00
2018-07-05T01:24:22.326Z,0.00
2018-07-05T01:25:22.289Z,0.00
2018-07-05T01:26:22.245Z,0.00
2018-07-05T01:27:22.210Z,0.00
2018-07-05T01:28:22.175Z,0.00
2018-07-05T01:29:22.252Z,0.00
2018-07-05T01:30:22.078Z,0.00
2018-07-05T01:31:22.049Z,0.00
2018-07-05T01:32:22.011Z,0.00
2018-07-05T01:33:21.969Z,0.00
2018-07-05T01:34:21.931Z,0.00
2018-07-05T01:35:21.888Z,0.00
2018-07-05T01:36:21.853Z,0.00
2018-07-05T01:37:21.812Z,0.00
2018-07-05T01:38:21.774Z,0.00
2018-07-05T01:39:21.736Z,0.00
2018-07-05T01:40:21.693Z,0.00
2018-07-05T01:41:21.651Z,0.00
2018-07-05T01:42:21.620Z,0.00
2018-07-05T01:43:21.572Z,0.00
2018-07-05T01:44:21.537Z,0.00
2018-07-05T01:45:21.498Z,0.00
2018-07-05T01:46:21.457Z,0.00
2018-07-05T01:47:21.417Z,0.00
2018-07-05T01:48:21.376Z,0.00
2018-07-05T01:49:21.336Z,0.00
2018-07-05T01:50:21.297Z,0.00
2018-07-05T01:51:21.272Z,0.00
2018-07-05T01:52:21.218Z,0.00
2018-07-05T01:53:21.179Z,0.00
2018-07-05T01:54:21.140Z,0.00
2018-07-05T01:55:21.099Z,0.00
2018-07-05T01:56:21.062Z,0.00
2018-07-05T01:57:21.023Z,0.00
2018-07-05T01:58:20.999Z,0.00
2018-07-05T01:59:20.952Z,0.00
2018-07-05T02:00:20.914Z,0.00
2018-07-05T02:01:20.870Z,0.00
2018-07-05T02:02:20.828Z,0.00
2018-07-05T02:03:20.787Z,0.00
2018-07-05T02:04:20.748Z,0.00
2018-07-05T02:05:20.708Z,0.00
2018-07-05T02:06:20.672Z,0.00
2018-07-05T02:07:20.618Z,0.00
2018-07-05T02:08:20.592Z,0.00
2018-07-05T02:09:20.566Z,0.00
2018-07-05T02:10:20.521Z,0.00
2018-07-05T02:11:20.474Z,0.00
2018-07-05T02:12:20.430Z,0.00
2018-07-05T02:13:20.394Z,0.00
2018-07-05T02:14:20.354Z,0.00
2018-07-05T02:15:20.309Z,0.00
2018-07-05T02:16:20.271Z,0.00
2018-07-05T02:17:20.233Z,0.00
2018-07-05T02:18:20.188Z,0.00
2018-07-05T02:19:20.159Z,0.00
2018-07-05T02:20:20.127Z,0.00
2018-07-05T02:21:20.084Z,0.00
2018-07-05T02:22:20.039Z,0.00
2018-07-05T02:23:19.995Z,0.00
2018-07-05T02:24:19.959Z,0.00
2018-07-05T02:25:19.918Z,0.00
2018-07-05T02:26:19.879Z,0.00
2018-07-05T02:27:19.836Z,0.00
2018-07-05T02:28:19.798Z,0.00
2018-07-05T02:29:19.760Z,0.00
2018-07-05T02:30:19.716Z,0.00
2018-07-05T02:31:19.692Z,0.00
2018-07-05T02:32:19.637Z,0.00
2018-07-05T02:33:19.608Z,0.00
2018-07-05T02:34:19.564Z,0.00
2018-07-05T02:35:19.525Z,0.00
2018-07-05T02:36:19.563Z,0.00
2018-07-05T02:37:19.445Z,0.00
2018-07-05T02:38:19.398Z,0.00
2018-07-05T02:39:19.365Z,0.00
2018-07-05T02:40:19.321Z,0.00
2018-07-05T02:41:19.285Z,0.00
2018-07-05T02:42:19.263Z,0.00
2018-07-05T02:43:19.215Z,0.00
2018-07-05T02:44:19.174Z,0.00
2018-07-05T02:45:19.135Z,0.00
2018-07-05T02:46:19.096Z,0.00
2018-07-05T02:47:19.050Z,0.00
2018-07-05T02:48:19.016Z,0.00
2018-07-05T02:49:18.967Z,0.00
2018-07-05T02:50:18.926Z,0.00
2018-07-05T02:51:18.886Z,0.00
2018-07-05T02:52:18.851Z,0.00
2018-07-05T02:53:18.823Z,0.00
2018-07-05T02:54:18.782Z,0.00
2018-07-05T02:55:18.735Z,0.00
2018-07-05T02:56:18.691Z,0.00
2018-07-05T02:57:18.659Z,0.00
2018-07-05T02:58:18.615Z,0.00
2018-07-05T02:59:18.576Z,0.00
2018-07-05T03:00:18.532Z,0.00
2018-07-05T03:01:18.495Z,0.00
2018-07-05T03:02:18.451Z,0.00
2018-07-05T03:03:18.413Z,0.00
2018-07-05T03:04:18.386Z,0.00
2018-07-05T03:05:18.343Z,0.00
2018-07-05T03:06:18.298Z,0.00
2018-07-05T03:07:18.258Z,0.00
2018-07-05T03:08:18.223Z,0.00
2018-07-05T03:09:18.177Z,0.00
2018-07-05T03:10:18.142Z,0.00
2018-07-05T03:11:18.098Z,0.00
2018-07-05T03:12:18.057Z,0.00
2018-07-05T03:13:18.018Z,0.00
2018-07-05T03:14:17.976Z,0.00
2018-07-05T03:15:17.938Z,0.00
2018-07-05T03:16:17.901Z,0.00
2018-07-05T03:17:17.860Z,0.00
2018-07-05T03:18:17.822Z,0.00
2018-07-05T03:19:17.783Z,0.00
2018-07-05T03:20:17.741Z,0.00
2018-07-05T03:21:17.701Z,0.00
2018-07-05T03:22:17.653Z,0.00
2018-07-05T03:23:17.624Z,0.00
2018-07-05T03:24:17.582Z,0.00
2018-07-05T03:25:17.547Z,0.00
2018-07-05T03:26:17.517Z,0.00
2018-07-05T03:27:17.466Z,0.00
2018-07-05T03:28:17.424Z,0.00
2018-07-05T03:29:17.383Z,0.00
2018-07-05T03:30:17.341Z,0.00
2018-07-05T03:31:17.308Z,0.00
2018-07-05T03:32:17.266Z,0.00
2018-07-05T03:33:17.228Z,0.00
2018-07-05T03:34:17.190Z,0.00
2018-07-05T03:35:17.148Z,0.00
2018-07-05T03:36:17.120Z,0.00
2018-07-05T03:37:17.068Z,0.00
2018-07-05T03:38:17.027Z,0.00
2018-07-05T03:39:16.994Z,0.00
2018-07-05T03:40:16.940Z,0.00
2018-07-05T03:41:16.915Z,0.00
2018-07-05T03:42:16.872Z,0.00
2018-07-05T03:43:16.835Z,0.00
2018-07-05T03:44:16.783Z,0.00
2018-07-05T03:45:16.754Z,0.00
2018-07-05T03:46:16.725Z,0.00
2018-07-05T03:47:16.683Z,0.00
2018-07-05T03:48:16.634Z,0.00
2018-07-05T03:49:16.593Z,0.00
2018-07-05T03:50:16.555Z,0.00
2018-07-05T03:51:16.516Z,0.00
2018-07-05T03:52:16.477Z,0.00
2018-07-05T03:53:16.435Z,0.00
2018-07-05T03:54:16.397Z,0.00
2018-07-05T03:55:16.358Z,0.00
2018-07-05T03:56:16.319Z,0.00
2018-07-05T03:57:16.288Z,0.00
2018-07-05T03:58:16.249Z,0.00
2018-07-05T03:59:16.202Z,0.00
2018-07-05T04:00:16.160Z,0.00
2018-07-05T04:01:16.119Z,0.00
2018-07-05T04:02:16.080Z,0.00
2018-07-05T04:03:16.046Z,0.00
2018-07-05T04:04:16.003Z,0.00
2018-07-05T04:05:15.961Z,0.00
2018-07-05T04:06:15.923Z,0.00
2018-07-05T04:07:15.884Z,0.00
2018-07-05T04:08:15.868Z,0.00
2018-07-05T04:09:15.816Z,0.00
2018-07-05T04:10:15.767Z,0.00
2018-07-05T04:11:15.718Z,0.00
2018-07-05T04:12:15.685Z,0.00
2018-07-05T04:13:15.634Z,0.00
2018-07-05T04:14:15.605Z,0.00
2018-07-05T04:15:15.563Z,0.00
2018-07-05T04:16:15.521Z,0.00
2018-07-05T04:17:15.488Z,0.00
2018-07-05T04:18:15.453Z,0.00
2018-07-05T04:19:15.414Z,0.00
2018-07-05T04:20:15.379Z,0.00
2018-07-05T04:21:15.324Z,0.00
2018-07-05T04:22:15.289Z,0.00
2018-07-05T04:23:15.249Z,0.00
2018-07-05T04:24:15.205Z,0.00
2018-07-05T04:25:15.167Z,0.00
2018-07-05T04:26:15.132Z,0.00
2018-07-05T04:27:15.089Z,0.00
2018-07-05T04:28:15.054Z,0.00
2018-07-05T04:29:15.006Z,0.00
2018-07-05T04:30:14.977Z,0.00
2018-07-05T04:31:14.935Z,0.00
2018-07-05T04:32:14.892Z,0.00
2018-07-05T04:33:14.856Z,0.00
2018-07-05T04:34:14.852Z,0.00
2018-07-05T04:35:14.768Z,0.00
2018-07-05T04:36:14.735Z,0.00
2018-07-05T04:37:14.690Z,0.00
2018-07-05T04:38:14.658Z,0.00
2018-07-05T04:39:14.610Z,0.00
2018-07-05T04:40:14.575Z,0.00
2018-07-05T04:41:14.543Z,0.00
2018-07-05T04:42:14.501Z,0.00
2018-07-05T04:43:14.460Z,0.00
2018-07-05T04:44:14.409Z,0.00
2018-07-05T04:45:14.373Z,0.00
2018-07-05T04:47:14.299Z,0.00
2018-07-05T04:48:14.260Z,0.00
2018-07-05T04:49:14.219Z,0.00
2018-07-05T04:50:14.177Z,0.00
2018-07-05T04:51:14.139Z,0.00
2018-07-05T04:52:14.105Z,0.00
2018-07-05T04:53:14.061Z,0.00
2018-07-05T04:54:14.022Z,0.00
2018-07-05T04:55:13.980Z,0.00
2018-07-05T04:56:13.943Z,0.00
2018-07-05T04:57:13.901Z,0.00
2018-07-05T04:58:13.871Z,0.00
2018-07-05T04:59:13.828Z,0.00
2018-07-05T05:00:13.789Z,0.00
2018-07-05T05:01:13.744Z,0.00
2018-07-05T05:02:13.703Z,0.00
2018-07-05T05:03:13.667Z,0.00
2018-07-05T05:05:13.589Z,0.00
2018-07-05T05:06:13.550Z,0.00
2018-07-05T05:07:13.507Z,0.00
2018-07-05T05:08:13.466Z,0.00
2018-07-05T05:09:13.425Z,0.00
2018-07-05T05:10:13.387Z,0.00
2018-07-05T05:11:13.348Z,0.00
2018-07-05T05:12:13.307Z,0.00
2018-07-05T05:13:13.269Z,0.00
2018-07-05T05:14:13.231Z,0.00
2018-07-05T05:15:13.186Z,0.00
2018-07-05T05:16:13.147Z,0.00
2018-07-05T05:17:13.112Z,0.00
2018-07-05T05:18:13.072Z,0.00
2018-07-05T05:19:13.031Z,0.00
2018-07-05T05:20:12.997Z,0.00
2018-07-05T05:21:12.951Z,0.00
2018-07-05T05:22:12.913Z,0.00
2018-07-05T05:23:12.877Z,0.00
2018-07-05T05:24:12.868Z,0.00
2018-07-05T05:25:12.793Z,0.00
2018-07-05T05:26:12.753Z,0.00
2018-07-05T05:27:12.715Z,0.00
2018-07-05T05:28:12.673Z,0.00
2018-07-05T05:29:12.631Z,0.00
2018-07-05T05:30:12.599Z,0.00
2018-07-05T05:31:12.554Z,0.00
2018-07-05T05:32:12.515Z,4.00
2018-07-05T05:33:12.478Z,0.00
2018-07-05T05:34:12.437Z,0.00
2018-07-05T05:35:12.399Z,0.00
2018-07-05T05:36:12.358Z,0.00
2018-07-05T05:37:12.316Z,0.00
2018-07-05T05:38:12.277Z,0.00
2018-07-05T05:39:12.231Z,0.00
2018-07-05T05:40:12.193Z,0.00
2018-07-05T05:41:12.159Z,0.00
2018-07-05T05:42:12.121Z,0.00
2018-07-05T05:43:12.110Z,0.00
2018-07-05T05:44:12.037Z,0.00
2018-07-05T05:45:11.999Z,0.00
2018-07-05T05:46:11.967Z,0.00
2018-07-05T05:47:11.940Z,0.00
2018-07-05T05:48:11.937Z,0.00
2018-07-05T05:49:11.845Z,0.00
2018-07-05T05:50:11.802Z,0.00
2018-07-05T05:51:11.761Z,0.00
2018-07-05T05:52:11.719Z,0.00
2018-07-05T05:53:11.683Z,0.00
2018-07-05T05:54:11.641Z,0.00
2018-07-05T05:55:11.603Z,0.00
2018-07-05T05:56:11.561Z,0.00
2018-07-05T05:57:11.523Z,0.00
2018-07-05T05:58:11.485Z,0.00
2018-07-05T05:59:11.447Z,0.00
2018-07-05T06:00:11.405Z,0.00
2018-07-05T06:01:11.367Z,0.00
2018-07-05T06:02:11.328Z,0.00
2018-07-05T06:03:11.286Z,0.00
2018-07-05T06:04:11.245Z,0.00
2018-07-05T06:05:11.205Z,0.00
2018-07-05T06:06:11.159Z,0.00
2018-07-05T06:07:11.120Z,0.00
2018-07-05T06:08:11.167Z,4.00
2018-07-05T06:09:11.048Z,0.00
2018-07-05T06:10:10.999Z,0.00
2018-07-05T06:11:10.968Z,4.00
2018-07-05T06:12:10.932Z,4.00
2018-07-05T06:13:10.892Z,0.00
2018-07-05T06:14:10.850Z,0.00
2018-07-05T06:15:10.814Z,0.00
2018-07-05T06:16:10.770Z,0.00
2018-07-05T06:17:10.735Z,0.00
2018-07-05T06:18:10.693Z,0.00
2018-07-05T06:19:10.654Z,0.00
2018-07-05T06:20:10.623Z,0.00
2018-07-05T06:21:10.567Z,0.00
2018-07-05T06:22:10.532Z,8.00
2018-07-05T06:23:10.498Z,40.00
2018-07-05T06:24:10.453Z,40.00
2018-07-05T06:25:10.418Z,40.00
2018-07-05T06:26:10.374Z,48.00
2018-07-05T06:27:10.338Z,52.00
2018-07-05T06:28:10.296Z,56.00
2018-07-05T06:29:10.539Z,56.00
2018-07-05T06:30:10.219Z,56.00
2018-07-05T06:31:10.245Z,52.00
2018-07-05T06:32:10.149Z,48.00
2018-07-05T06:33:10.099Z,48.00
2018-07-05T06:34:10.095Z,52.00
2018-07-05T06:35:10.017Z,52.00
2018-07-05T06:36:09.974Z,56.00
2018-07-05T06:37:09.939Z,52.00
2018-07-05T06:38:09.904Z,56.00
2018-07-05T06:39:09.859Z,56.00
2018-07-05T06:40:09.811Z,60.00
2018-07-05T06:41:09.782Z,64.00
2018-07-05T06:42:09.744Z,72.00
2018-07-05T06:43:09.700Z,76.00
2018-07-05T06:44:09.670Z,40.00
2018-07-05T06:45:09.622Z,56.00
2018-07-05T06:46:09.577Z,56.00
2018-07-05T06:47:09.536Z,72.00
2018-07-05T06:48:09.515Z,76.00
2018-07-05T06:49:09.471Z,80.00
2018-07-05T06:50:09.429Z,80.00
2018-07-05T06:51:09.549Z,80.00
2018-07-05T06:52:09.342Z,84.00
2018-07-05T06:53:09.367Z,84.00
2018-07-05T06:54:09.261Z,84.00
2018-07-05T06:55:09.404Z,88.00
2018-07-05T06:56:09.181Z,88.00
2018-07-05T06:57:09.152Z,84.00
2018-07-05T06:58:09.101Z,84.00
2018-07-05T06:59:09.126Z,80.00
2018-07-05T07:00:09.035Z,72.00
2018-07-05T07:01:08.974Z,68.00
2018-07-05T07:02:08.952Z,60.00
2018-07-05T07:03:08.903Z,56.00
2018-07-05T07:04:08.865Z,68.00
2018-07-05T07:05:08.820Z,64.00
2018-07-05T07:06:08.790Z,72.00
2018-07-05T07:07:08.750Z,72.00
2018-07-05T07:08:08.806Z,72.00
2018-07-05T07:09:08.661Z,72.00
2018-07-05T07:10:08.626Z,64.00
2018-07-05T07:11:08.574Z,52.00
2018-07-05T07:12:08.542Z,52.00
2018-07-05T07:13:08.505Z,56.00
2018-07-05T07:14:08.463Z,60.00
2018-07-05T07:15:08.431Z,72.00
2018-07-05T07:16:08.487Z,68.00
2018-07-05T07:17:08.341Z,80.00
2018-07-05T07:18:08.310Z,92.00
2018-07-05T07:19:08.267Z,112.00
2018-07-05T07:20:08.231Z,112.00
2018-07-05T07:21:08.183Z,108.00
2018-07-05T07:22:08.145Z,108.00
2018-07-05T07:23:08.109Z,108.00
2018-07-05T07:24:08.066Z,108.00
2018-07-05T07:25:08.024Z,108.00
2018-07-05T07:26:07.989Z,112.00
2018-07-05T07:27:07.947Z,116.00
2018-07-05T07:28:07.905Z,116.00
2018-07-05T07:29:07.866Z,128.00
2018-07-05T07:30:07.830Z,132.00
2018-07-05T07:31:07.787Z,132.00
2018-07-05T07:32:07.751Z,128.00
2018-07-05T07:33:07.716Z,128.00
2018-07-05T07:34:07.673Z,128.00
2018-07-05T07:35:07.625Z,128.00
2018-07-05T07:36:07.591Z,128.00
2018-07-05T07:37:07.551Z,136.00
2018-07-05T07:38:07.508Z,128.00
2018-07-05T07:39:07.469Z,132.00
2018-07-05T07:40:07.427Z,140.00
2018-07-05T07:41:07.393Z,140.00
2018-07-05T07:42:07.350Z,136.00
2018-07-05T07:43:07.312Z,136.00
2018-07-05T07:44:07.270Z,140.00
2018-07-05T07:45:07.232Z,144.00
2018-07-05T07:46:07.184Z,140.00
2018-07-05T07:47:07.162Z,136.00
2018-07-05T07:48:07.127Z,136.00
2018-07-05T07:49:07.071Z,140.00
2018-07-05T07:50:07.035Z,136.00
2018-07-05T07:51:06.988Z,120.00
2018-07-05T07:52:06.949Z,136.00
2018-07-05T07:53:06.914Z,124.00
2018-07-05T07:54:06.871Z,112.00
2018-07-05T07:55:06.833Z,112.00
2018-07-05T07:56:06.795Z,108.00
2018-07-05T07:57:06.752Z,108.00
2018-07-05T07:58:06.716Z,120.00
2018-07-05T07:59:06.673Z,112.00
2018-07-05T08:00:06.641Z,112.00
2018-07-05T08:01:06.593Z,104.00
2018-07-05T08:02:06.554Z,124.00
2018-07-05T08:03:06.535Z,108.00
2018-07-05T08:04:06.475Z,124.00
2018-07-05T08:05:06.438Z,120.00
2018-07-05T08:06:06.417Z,100.00
2018-07-05T08:07:06.353Z,120.00
2018-07-05T08:08:06.319Z,128.00
2018-07-05T08:09:06.280Z,128.00
2018-07-05T08:10:06.303Z,124.00
2018-07-05T08:11:06.196Z,120.00
2018-07-05T08:12:06.158Z,100.00
2018-07-05T08:13:06.113Z,108.00
2018-07-05T08:14:06.076Z,96.00
2018-07-05T08:15:06.071Z,100.00
2018-07-05T08:16:05.999Z,100.00
2018-07-05T08:17:05.954Z,104.00
2018-07-05T08:18:05.916Z,108.00
2018-07-05T08:19:05.880Z,124.00
2018-07-05T08:20:05.846Z,152.00
2018-07-05T08:21:05.801Z,156.00
2018-07-05T08:22:05.761Z,160.00
2018-07-05T08:23:05.719Z,164.00
2018-07-05T08:24:05.695Z,168.00
2018-07-05T08:25:05.640Z,176.00
2018-07-05T08:26:05.606Z,180.00
2018-07-05T08:27:05.599Z,180.00
2018-07-05T08:28:05.519Z,180.00
2018-07-05T08:29:05.479Z,192.00
2018-07-05T08:30:05.442Z,196.00
2018-07-05T08:31:05.403Z,196.00
2018-07-05T08:32:05.358Z,184.00
2018-07-05T08:33:05.322Z,180.00
2018-07-05T08:34:05.280Z,164.00
2018-07-05T08:35:05.242Z,128.00
2018-07-05T08:36:05.210Z,120.00
2018-07-05T08:37:05.162Z,112.00
2018-07-05T08:38:05.130Z,108.00
2018-07-05T08:39:05.082Z,108.00
2018-07-05T08:40:05.044Z,112.00
2018-07-05T08:41:05.001Z,112.00
2018-07-05T08:42:04.964Z,104.00
2018-07-05T08:43:04.928Z,104.00
2018-07-05T08:44:04.887Z,112.00
2018-07-05T08:45:04.845Z,120.00
2018-07-05T08:46:04.809Z,120.00
2018-07-05T08:47:04.769Z,152.00
2018-07-05T08:48:04.727Z,132.00
2018-07-05T08:49:04.703Z,148.00
2018-07-05T08:50:04.647Z,172.00
2018-07-05T08:51:04.649Z,116.00
2018-07-05T08:52:04.568Z,108.00
2018-07-05T08:53:04.530Z,120.00
2018-07-05T08:54:04.492Z,116.00
2018-07-05T08:55:04.446Z,148.00
2018-07-05T08:56:04.412Z,160.00
2018-07-05T08:57:04.376Z,152.00
2018-07-05T08:58:04.325Z,152.00
2018-07-05T08:59:04.291Z,132.00
2018-07-05T09:00:04.248Z,124.00
2018-07-05T09:01:04.219Z,120.00
2018-07-05T09:02:04.168Z,108.00
2018-07-05T09:03:04.130Z,100.00
2018-07-05T09:04:04.089Z,104.00
2018-07-05T09:05:04.051Z,96.00
2018-07-05T09:06:04.015Z,88.00
2018-07-05T09:07:03.970Z,88.00
2018-07-05T09:08:03.935Z,88.00
2018-07-05T09:09:03.892Z,92.00
2018-07-05T09:10:03.859Z,96.00
2018-07-05T09:11:03.829Z,96.00
2018-07-05T09:12:03.772Z,96.00
2018-07-05T09:13:03.734Z,96.00
2018-07-05T09:15:03.658Z,108.00
2018-07-05T09:16:03.613Z,112.00
2018-07-05T09:17:03.579Z,124.00
2018-07-05T09:18:03.553Z,120.00
2018-07-05T09:19:03.496Z,128.00
2018-07-05T09:20:03.457Z,136.00
2018-07-05T09:21:03.413Z,132.00
2018-07-05T09:22:03.410Z,140.00
2018-07-05T09:23:03.392Z,128.00
2018-07-05T09:24:03.296Z,128.00
2018-07-05T09:25:03.260Z,128.00
2018-07-05T09:26:03.215Z,132.00
2018-07-05T09:27:03.174Z,164.00
2018-07-05T09:28:03.136Z,148.00
2018-07-05T09:29:03.097Z,164.00
2018-07-05T09:30:03.060Z,156.00
2018-07-05T09:31:03.089Z,152.00
2018-07-05T09:32:02.975Z,160.00
2018-07-05T09:33:02.940Z,172.00
2018-07-05T09:34:02.896Z,164.00
2018-07-05T09:35:02.869Z,148.00
2018-07-05T09:36:02.813Z,156.00
2018-07-05T09:37:02.812Z,124.00
2018-07-05T09:38:02.746Z,124.00
2018-07-05T09:39:02.699Z,116.00
2018-07-05T09:40:02.657Z,112.00
2018-07-05T09:41:02.635Z,108.00
2018-07-05T09:42:02.573Z,104.00
2018-07-05T09:43:02.541Z,104.00
2018-07-05T09:44:02.499Z,104.00
2018-07-05T09:45:02.471Z,104.00
2018-07-05T09:46:02.423Z,108.00
2018-07-05T09:47:02.442Z,112.00
2018-07-05T09:48:02.342Z,108.00
2018-07-05T09:49:02.300Z,108.00
2018-07-05T09:50:02.263Z,104.00
2018-07-05T09:51:02.224Z,108.00
2018-07-05T09:52:02.182Z,104.00
2018-07-05T09:53:02.137Z,104.00
2018-07-05T09:54:02.109Z,108.00
2018-07-05T09:55:02.065Z,104.00
2018-07-05T09:56:02.021Z,104.00
2018-07-05T09:57:01.993Z,104.00
2018-07-05T09:58:01.987Z,104.00
2018-07-05T09:59:01.905Z,108.00
2018-07-05T10:00:01.868Z,120.00
2018-07-05T10:01:01.829Z,132.00
2018-07-05T10:02:01.785Z,152.00
2018-07-05T10:03:01.743Z,176.00
2018-07-05T10:04:01.704Z,184.00
2018-07-05T10:05:01.669Z,176.00
2018-07-05T10:06:01.628Z,164.00
2018-07-05T10:07:01.590Z,156.00
2018-07-05T10:08:01.544Z,192.00
2018-07-05T10:09:01.516Z,188.00
2018-07-05T10:10:01.470Z,184.00
2018-07-05T10:11:01.424Z,188.00
2018-07-05T10:12:01.385Z,184.00
2018-07-05T10:13:01.460Z,168.00
2018-07-05T10:14:01.312Z,148.00
2018-07-05T10:15:01.270Z,152.00
2018-07-05T10:16:01.226Z,168.00
2018-07-05T10:17:01.185Z,188.00
2018-07-05T10:18:01.149Z,200.00
2018-07-05T10:19:01.109Z,200.00
2018-07-05T10:20:01.071Z,172.00
2018-07-05T10:21:01.036Z,168.00
2018-07-05T10:22:00.988Z,164.00
2018-07-05T10:23:00.952Z,216.00
2018-07-05T10:24:00.910Z,192.00
2018-07-05T10:25:00.876Z,192.00
2018-07-05T10:26:00.831Z,212.00
2018-07-05T10:27:00.829Z,220.00
2018-07-05T10:28:00.752Z,224.00
2018-07-05T10:29:00.713Z,216.00
2018-07-05T10:30:00.666Z,224.00
2018-07-05T10:31:00.642Z,224.00
2018-07-05T10:32:00.594Z,224.00
2018-07-05T10:33:00.558Z,240.00
2018-07-05T10:34:00.515Z,228.00
2018-07-05T10:35:00.474Z,236.00
2018-07-05T10:36:00.433Z,228.00
2018-07-05T10:37:00.398Z,220.00
2018-07-05T10:38:00.353Z,220.00
2018-07-05T10:39:00.314Z,220.00
2018-07-05T10:40:00.272Z,228.00
2018-07-05T10:41:00.241Z,232.00
2018-07-05T10:42:00.205Z,232.00
2018-07-05T10:43:00.164Z,236.00
2018-07-05T10:44:00.135Z,236.00
2018-07-05T10:45:00.079Z,216.00
2018-07-05T10:46:00.053Z,196.00
2018-07-05T10:46:59.993Z,172.00
2018-07-05T10:47:59.960Z,152.00
2018-07-05T10:48:59.917Z,136.00
2018-07-05T10:49:59.874Z,136.00
2018-07-05T10:50:59.839Z,144.00
2018-07-05T10:51:59.798Z,148.00
2018-07-05T10:52:59.759Z,144.00
2018-07-05T10:53:59.732Z,132.00
2018-07-05T10:54:59.678Z,124.00
2018-07-05T10:55:59.637Z,116.00
2018-07-05T10:56:59.640Z,116.00
2018-07-05T10:57:59.563Z,124.00
2018-07-05T10:58:59.522Z,132.00
2018-07-05T10:59:59.483Z,140.00
2018-07-05T11:00:59.487Z,152.00
2018-07-05T11:01:59.400Z,188.00
2018-07-05T11:02:59.362Z,220.00
2018-07-05T11:03:59.323Z,232.00
2018-07-05T11:04:59.285Z,192.00
2018-07-05T11:05:59.244Z,192.00
2018-07-05T11:06:59.208Z,212.00
2018-07-05T11:07:59.154Z,220.00
2018-07-05T11:08:59.126Z,232.00
2018-07-05T11:09:59.084Z,220.00
2018-07-05T11:10:59.062Z,228.00
2018-07-05T11:11:59.004Z,224.00
2018-07-05T11:12:58.975Z,224.00
2018-07-05T11:13:58.924Z,220.00
2018-07-05T11:14:58.885Z,232.00
2018-07-05T11:15:58.851Z,228.00
2018-07-05T11:48:44.537Z,204.00
2018-07-05T11:49:44.464Z,176.00
2018-07-05T11:50:44.432Z,156.00
2018-07-05T11:51:44.394Z,180.00
2018-07-05T11:52:44.353Z,216.00
2018-07-05T11:53:44.319Z,224.00
2018-07-05T11:54:44.335Z,172.00
2018-07-05T11:55:44.237Z,164.00
2018-07-05T11:56:44.191Z,132.00
2018-07-05T11:57:44.157Z,128.00
2018-07-05T11:58:44.118Z,148.00
2018-07-05T11:59:44.077Z,132.00
2018-07-05T12:00:44.035Z,180.00
2018-07-05T12:01:43.994Z,208.00
2018-07-05T12:02:44.016Z,220.00
2018-07-05T12:03:43.920Z,232.00
2018-07-05T12:04:43.879Z,216.00
2018-07-05T12:05:43.833Z,216.00
2018-07-05T12:06:43.801Z,148.00
2018-07-05T12:07:43.753Z,188.00
2018-07-05T12:08:43.745Z,156.00
2018-07-05T12:09:43.675Z,108.00
2018-07-05T12:10:43.636Z,104.00
2018-07-05T12:11:43.598Z,136.00
2018-07-05T12:12:43.560Z,96.00
2018-07-05T12:13:43.530Z,96.00
2018-07-05T12:14:43.483Z,92.00
2018-07-05T12:15:43.441Z,92.00
2018-07-05T12:16:43.403Z,88.00
2018-07-05T12:17:43.361Z,104.00
2018-07-05T12:18:43.319Z,108.00
2018-07-05T12:19:43.281Z,140.00
2018-07-05T12:20:43.249Z,196.00
2018-07-05T12:21:43.198Z,116.00
2018-07-05T12:22:43.162Z,124.00
2018-07-05T12:23:43.122Z,180.00
2018-07-05T12:24:43.088Z,128.00
2018-07-05T12:25:43.043Z,128.00
2018-07-05T12:26:43.003Z,124.00
2018-07-05T12:27:42.960Z,148.00
2018-07-05T12:28:42.925Z,160.00
2018-07-05T12:29:42.885Z,180.00
2018-07-05T12:30:42.847Z,188.00
2018-07-05T12:31:42.802Z,188.00
2018-07-05T12:32:42.763Z,200.00
2018-07-05T12:33:42.726Z,188.00
2018-07-05T12:34:42.710Z,168.00
2018-07-05T12:35:42.650Z,140.00
2018-07-05T12:36:42.607Z,96.00
2018-07-05T12:37:42.569Z,80.00
2018-07-05T12:38:42.526Z,76.00
2018-07-05T12:39:42.488Z,72.00
2018-07-05T12:40:42.450Z,68.00
2018-07-05T12:41:42.411Z,72.00
2018-07-05T12:42:42.370Z,72.00
2018-07-05T12:43:42.332Z,88.00
2018-07-05T12:44:42.291Z,76.00
2018-07-05T12:45:42.250Z,80.00
2018-07-05T12:46:42.207Z,88.00
2018-07-05T12:47:42.170Z,80.00
2018-07-05T12:48:42.130Z,80.00
2018-07-05T12:49:42.090Z,76.00
2018-07-05T12:50:42.052Z,76.00
2018-07-05T12:51:42.010Z,76.00
2018-07-05T12:52:41.972Z,68.00
2018-07-05T12:53:41.933Z,68.00
2018-07-05T12:54:41.892Z,100.00
2018-07-05T12:55:41.855Z,88.00
2018-07-05T12:56:41.820Z,116.00
2018-07-05T12:57:41.772Z,76.00
2018-07-05T12:58:41.734Z,88.00
2018-07-05T12:59:41.689Z,84.00
2018-07-05T13:00:41.655Z,80.00
2018-07-05T13:01:41.610Z,84.00
2018-07-05T13:02:41.572Z,84.00
2018-07-05T13:03:41.530Z,80.00
2018-07-05T13:04:41.505Z,80.00
2018-07-05T13:05:41.469Z,72.00
2018-07-05T13:06:41.411Z,72.00
2018-07-05T13:07:41.379Z,72.00
2018-07-05T13:08:41.334Z,80.00
2018-07-05T13:09:41.300Z,92.00
2018-07-05T13:10:41.256Z,104.00
2018-07-05T13:11:41.218Z,104.00
2018-07-05T13:12:41.228Z,88.00
2018-07-05T13:13:41.144Z,76.00
2018-07-05T13:14:41.099Z,88.00
2018-07-05T13:15:41.060Z,72.00
2018-07-05T13:16:41.019Z,72.00
2018-07-05T13:17:40.981Z,84.00
2018-07-05T13:18:40.969Z,68.00
2018-07-05T13:19:40.900Z,52.00
2018-07-05T13:20:40.862Z,52.00
2018-07-05T13:21:40.820Z,52.00
2018-07-05T13:22:40.781Z,56.00
2018-07-05T13:23:40.740Z,56.00
2018-07-05T13:24:40.708Z,60.00
2018-07-05T13:25:40.660Z,60.00
2018-07-05T13:26:40.622Z,60.00
2018-07-05T13:27:40.583Z,60.00
2018-07-05T13:28:40.547Z,56.00
2018-07-05T13:29:40.507Z,60.00
2018-07-05T13:30:40.460Z,64.00